Terminal Aerodrome Forecast
Issued by NWS

Home | Current Version | Previous Version | Text Only | Print | Product List | Glossary On
Versions: 1 2 3 4 5 6 7 8 9 10 11 12 13 14 15 16 17 18 19 20 21 22 23 24 25 26 27 28 29 30 31 32 33 34 35 36 37 38 39 40 41 42 43 44 45 46 47
000
FTUS41 KCTP 300525
TAFUNV
TAF
KUNV 300525Z 3006/3106 27004KT 4SM -SN BR BKN016 OVC021
      TEMPO 3006/3008 1SM -SNPL BR BKN005 OVC015
     FM300900 27010KT P6SM VCSH SCT015 OVC025
     FM301500 31015G23KT P6SM OVC035
     FM302100 31020G30KT P6SM BKN040=

USA.gov is the U.S. government's official web portal to all federal, state and local government web resources and services.